Time;durP1;ratioP1;P1;durP2;ratioP2;P2;SDS_P1;SDS_P2;PMS_P1;PMS_P2;Temp;Humidity;BMP_temperature;BMP_pressure;BME280_temperature;BME280_humidity;BME280_pressure;Samples;Min_cycle;Max_cycle;Signal;HPM_P1;HPM_P2
2021/04/16 00:00:35;;;;;;;;;;;18.10;39.50;;;;;;509457;234;1048;-46
2021/04/16 00:02:36;;;;;;;;;;;18.10;39.60;;;;;;497590;239;1036;-46
2021/04/16 00:04:37;;;;;;;;;;;18.10;39.60;;;;;;508983;234;1181;-46
2021/04/16 00:06:38;;;;;;;;;;;18.10;39.60;;;;;;497486;239;1053;-46
2021/04/16 00:08:40;;;;;;;;;;;18.00;39.60;;;;;;509135;234;1003;-46
2021/04/16 00:10:41;;;;;;;;;;;18.00;39.60;;;;;;498015;239;1039;-46
2021/04/16 00:12:43;;;;;;;;;;;18.00;39.70;;;;;;509299;234;961;-46
2021/04/16 00:14:44;;;;;;;;;;;18.00;39.70;;;;;;497570;239;1057;-46
2021/04/16 00:16:45;;;;;;;;;;;18.00;39.70;;;;;;509179;234;2115;-46
2021/04/16 00:18:46;;;;;;;;;;;17.90;39.70;;;;;;492292;241;1342;-46
2021/04/16 00:20:48;;;;;;;;;;;18.00;39.70;;;;;;509093;234;1109;-46
2021/04/16 00:22:49;;;;;;;;;;;17.90;39.70;;;;;;497705;239;1298;-46
2021/04/16 00:24:50;;;;;;;;;;;17.90;39.70;;;;;;509562;234;1087;-46
2021/04/16 00:26:51;;;;;;;;;;;17.90;39.80;;;;;;492257;241;1226;-46
2021/04/16 00:28:53;;;;;;;;;;;17.90;39.80;;;;;;509553;234;1104;-46
2021/04/16 00:30:55;;;;;;;;;;;17.90;39.80;;;;;;491838;242;1183;-46
2021/04/16 00:32:56;;;;;;;;;;;17.80;39.80;;;;;;508952;234;1146;-46
2021/04/16 00:34:57;;;;;;;;;;;17.80;39.90;;;;;;497731;239;1137;-46
2021/04/16 00:36:58;;;;;;;;;;;17.80;39.90;;;;;;509301;234;2160;-44
2021/04/16 00:39:00;;;;;;;;;;;17.80;39.90;;;;;;492208;241;1046;-44
2021/04/16 00:41:01;;;;;;;;;;;17.80;39.80;;;;;;509487;234;1382;-44
2021/04/16 00:43:02;;;;;;;;;;;18.20;39.20;;;;;;497975;239;1170;-44
2021/04/16 00:45:03;;;;;;;;;;;18.60;38.20;;;;;;508963;234;1018;-44
2021/04/16 00:47:05;;;;;;;;;;;19.00;37.50;;;;;;497489;239;1063;-44
2021/04/16 00:49:06;;;;;;;;;;;19.20;36.90;;;;;;509075;234;1114;-44
2021/04/16 00:51:07;;;;;;;;;;;19.40;36.60;;;;;;497545;239;1081;-44
2021/04/16 00:53:09;;;;;;;;;;;19.50;36.30;;;;;;509034;234;1092;-44
2021/04/16 00:55:10;;;;;;;;;;;19.70;36.10;;;;;;497528;239;1063;-44
2021/04/16 00:57:11;;;;;;;;;;;19.70;35.90;;;;;;509104;234;2190;-44
2021/04/16 00:59:12;;;;;;;;;;;19.90;35.80;;;;;;492376;241;1071;-44
2021/04/16 01:01:14;;;;;;;;;;;19.90;35.60;;;;;;509010;234;1254;-44
2021/04/16 01:03:15;;;;;;;;;;;20.00;35.60;;;;;;497573;239;1090;-44
2021/04/16 01:05:16;;;;;;;;;;;20.00;35.40;;;;;;509210;234;1235;-44
2021/04/16 01:07:18;;;;;;;;;;;20.10;35.40;;;;;;497681;239;1284;-44
2021/04/16 01:09:19;;;;;;;;;;;20.10;35.30;;;;;;509367;234;1167;-44
2021/04/16 01:11:21;;;;;;;;;;;20.10;35.20;;;;;;497824;239;1215;-44
2021/04/16 01:13:22;;;;;;;;;;;20.20;35.20;;;;;;509236;234;1120;-44
2021/04/16 01:15:28;;;;;;;;;;;20.20;35.10;;;;;;497868;239;2242;-44
2021/04/16 01:17:27;;;;;;;;;;;20.30;35.10;;;;;;509274;234;2084;-44
2021/04/16 01:19:28;;;;;;;;;;;20.30;35.00;;;;;;492302;241;1129;-44
2021/04/16 01:21:29;;;;;;;;;;;20.30;35.00;;;;;;509208;234;1036;-44
2021/04/16 01:23:30;;;;;;;;;;;20.30;34.90;;;;;;498021;239;1068;-44
2021/04/16 01:25:32;;;;;;;;;;;20.40;34.90;;;;;;509287;234;1054;-44
2021/04/16 01:27:33;;;;;;;;;;;20.40;34.90;;;;;;497813;239;1096;-44
2021/04/16 01:29:34;;;;;;;;;;;20.40;34.80;;;;;;509248;234;1157;-44
2021/04/16 01:31:35;;;;;;;;;;;20.40;34.70;;;;;;497484;239;1185;-44
2021/04/16 01:33:37;;;;;;;;;;;20.40;34.70;;;;;;509026;234;1111;-44
2021/04/16 01:35:38;;;;;;;;;;;20.50;34.70;;;;;;497623;239;2162;-44
2021/04/16 01:37:39;;;;;;;;;;;20.50;34.60;;;;;;509147;234;1085;-44
2021/04/16 01:39:41;;;;;;;;;;;20.50;34.60;;;;;;497953;239;1061;-44
2021/04/16 01:41:42;;;;;;;;;;;20.60;34.60;;;;;;508973;234;1211;-44
2021/04/16 01:43:43;;;;;;;;;;;20.60;34.50;;;;;;498003;239;1019;-44
2021/04/16 01:45:44;;;;;;;;;;;20.60;34.50;;;;;;509382;234;1443;-44
2021/04/16 01:47:46;;;;;;;;;;;20.60;34.50;;;;;;492338;241;1217;-44
2021/04/16 01:49:47;;;;;;;;;;;20.60;34.40;;;;;;509251;234;1162;-44
2021/04/16 01:51:49;;;;;;;;;;;20.60;34.30;;;;;;509138;233;1059;-44
2021/04/16 01:53:50;;;;;;;;;;;20.70;34.40;;;;;;491935;242;1115;-44
2021/04/16 01:55:51;;;;;;;;;;;20.70;34.40;;;;;;508972;234;2113;-44
2021/04/16 01:57:53;;;;;;;;;;;20.70;34.30;;;;;;497561;239;1382;-44
2021/04/16 01:59:54;;;;;;;;;;;20.70;34.30;;;;;;509289;234;1036;-44
2021/04/16 02:01:55;;;;;;;;;;;20.80;34.30;;;;;;491799;241;1184;-44
2021/04/16 02:03:57;;;;;;;;;;;20.80;34.30;;;;;;509464;234;1192;-44
2021/04/16 02:05:59;;;;;;;;;;;20.80;34.20;;;;;;509173;233;1252;-44
2021/04/16 02:07:59;;;;;;;;;;;20.80;34.20;;;;;;497602;239;1172;-44
2021/04/16 02:10:01;;;;;;;;;;;20.80;34.20;;;;;;509283;234;1218;-44
2021/04/16 02:12:02;;;;;;;;;;;20.80;34.20;;;;;;497657;239;1214;-44
2021/04/16 02:14:03;;;;;;;;;;;20.80;34.20;;;;;;509523;234;1090;-44
2021/04/16 02:16:04;;;;;;;;;;;20.90;34.20;;;;;;497597;239;2140;-44
2021/04/16 02:18:06;;;;;;;;;;;20.90;34.10;;;;;;509420;234;1048;-44
2021/04/16 02:20:07;;;;;;;;;;;20.90;34.10;;;;;;498083;239;1156;-44
2021/04/16 02:22:08;;;;;;;;;;;20.90;34.10;;;;;;509064;234;1128;-44
2021/04/16 02:24:10;;;;;;;;;;;20.90;34.10;;;;;;492122;241;1189;-44
2021/04/16 02:26:11;;;;;;;;;;;20.90;34.10;;;;;;509045;234;1132;-44
2021/04/16 02:28:12;;;;;;;;;;;21.00;34.10;;;;;;497569;239;1156;-44
2021/04/16 02:30:13;;;;;;;;;;;21.00;34.10;;;;;;509086;234;1012;-44
2021/04/16 02:32:15;;;;;;;;;;;20.90;34.00;;;;;;492350;241;1093;-44
2021/04/16 02:34:16;;;;;;;;;;;21.00;34.00;;;;;;509053;234;1041;-44
2021/04/16 02:36:17;;;;;;;;;;;21.00;33.90;;;;;;509030;234;2161;-44
2021/04/16 02:38:19;;;;;;;;;;;21.00;34.00;;;;;;497674;239;1154;-47
2021/04/16 02:40:20;;;;;;;;;;;21.00;33.90;;;;;;509403;234;1111;-44
2021/04/16 02:42:21;;;;;;;;;;;21.00;33.90;;;;;;492154;241;1089;-44
2021/04/16 02:44:22;;;;;;;;;;;21.10;33.90;;;;;;509408;234;1038;-44
2021/04/16 02:46:24;;;;;;;;;;;21.00;33.90;;;;;;509324;233;1079;-44
2021/04/16 02:48:25;;;;;;;;;;;21.10;33.90;;;;;;491951;242;1028;-44
2021/04/16 02:50:26;;;;;;;;;;;21.10;33.90;;;;;;509063;234;1058;-44
2021/04/16 02:52:27;;;;;;;;;;;21.10;33.90;;;;;;509067;233;1094;-44
2021/04/16 02:54:29;;;;;;;;;;;21.10;33.90;;;;;;497519;239;1043;-44
2021/04/16 02:56:30;;;;;;;;;;;21.10;33.90;;;;;;509170;234;2136;-44
2021/04/16 02:58:31;;;;;;;;;;;21.10;33.80;;;;;;497586;239;1063;-44
2021/04/16 03:00:33;;;;;;;;;;;21.10;33.80;;;;;;509042;234;1217;-44
2021/04/16 03:02:34;;;;;;;;;;;21.10;33.80;;;;;;492339;241;1089;-44
2021/04/16 03:04:36;;;;;;;;;;;21.10;33.90;;;;;;509469;234;1007;-44
2021/04/16 03:06:37;;;;;;;;;;;21.10;33.90;;;;;;491870;241;1165;-44
2021/04/16 03:08:38;;;;;;;;;;;21.10;33.90;;;;;;509256;234;1266;-44
2021/04/16 03:10:39;;;;;;;;;;;21.10;33.90;;;;;;497854;239;1003;-44
2021/04/16 03:12:41;;;;;;;;;;;21.10;33.80;;;;;;509160;234;1049;-44
2021/04/16 03:14:42;;;;;;;;;;;21.20;33.90;;;;;;492043;241;1265;-44
2021/04/16 03:16:43;;;;;;;;;;;21.10;33.80;;;;;;509143;234;2125;-44
2021/04/16 03:18:44;;;;;;;;;;;21.20;33.90;;;;;;509081;234;1045;-44
2021/04/16 03:20:46;;;;;;;;;;;21.10;33.80;;;;;;491870;242;1070;-44
2021/04/16 03:22:47;;;;;;;;;;;21.20;33.90;;;;;;509079;234;1135;-44
2021/04/16 03:24:48;;;;;;;;;;;21.20;33.90;;;;;;497563;239;1074;-44
2021/04/16 03:26:50;;;;;;;;;;;21.20;33.90;;;;;;509058;234;1038;-44
2021/04/16 03:28:51;;;;;;;;;;;21.20;33.90;;;;;;497894;239;1046;-44
2021/04/16 03:30:52;;;;;;;;;;;21.20;33.80;;;;;;509035;234;1054;-44
2021/04/16 03:32:53;;;;;;;;;;;21.20;33.80;;;;;;498056;239;1561;-44
2021/04/16 03:34:56;;;;;;;;;;;21.20;33.80;;;;;;509134;234;1103;-44
2021/04/16 03:36:57;;;;;;;;;;;21.20;33.80;;;;;;497552;239;2184;-44
2021/04/16 03:38:58;;;;;;;;;;;21.20;33.80;;;;;;509174;234;1121;-44
2021/04/16 03:40:59;;;;;;;;;;;21.20;33.70;;;;;;497561;239;1056;-44
2021/04/16 03:43:01;;;;;;;;;;;21.30;33.70;;;;;;509290;234;1027;-44
2021/04/16 03:45:02;;;;;;;;;;;21.30;33.70;;;;;;497774;239;1167;-44
2021/04/16 03:47:03;;;;;;;;;;;21.20;33.70;;;;;;508951;234;1095;-44
2021/04/16 03:49:05;;;;;;;;;;;21.20;33.70;;;;;;498054;239;1026;-44
2021/04/16 03:51:06;;;;;;;;;;;21.30;33.70;;;;;;509080;234;1108;-44
2021/04/16 03:53:07;;;;;;;;;;;21.30;33.60;;;;;;497576;239;1229;-44
2021/04/16 03:55:08;;;;;;;;;;;21.30;33.60;;;;;;509523;234;1128;-44
2021/04/16 03:57:10;;;;;;;;;;;21.30;33.60;;;;;;497695;239;2150;-44
2021/04/16 03:59:11;;;;;;;;;;;21.30;33.60;;;;;;508940;234;1204;-44
2021/04/16 04:01:12;;;;;;;;;;;21.30;33.60;;;;;;497478;239;1066;-44
2021/04/16 04:03:13;;;;;;;;;;;21.30;33.60;;;;;;509422;234;1053;-44
2021/04/16 04:05:15;;;;;;;;;;;21.30;33.60;;;;;;498096;239;1212;-44
2021/04/16 04:07:16;;;;;;;;;;;21.30;33.60;;;;;;509314;234;1113;-44
2021/04/16 04:09:17;;;;;;;;;;;21.30;33.60;;;;;;491942;241;1082;-44
2021/04/16 04:11:19;;;;;;;;;;;21.30;33.60;;;;;;509127;234;1091;-44
2021/04/16 04:13:20;;;;;;;;;;;21.30;33.60;;;;;;497980;239;1106;-44
2021/04/16 04:15:21;;;;;;;;;;;21.30;33.60;;;;;;509568;234;1076;-44
2021/04/16 04:17:22;;;;;;;;;;;21.30;33.70;;;;;;497517;239;2177;-44
2021/04/16 04:19:24;;;;;;;;;;;21.40;33.60;;;;;;509342;234;1326;-44
2021/04/16 04:21:25;;;;;;;;;;;21.40;33.60;;;;;;497502;239;1430;-44
2021/04/16 04:23:26;;;;;;;;;;;21.40;33.60;;;;;;509087;234;1631;-44
2021/04/16 04:25:28;;;;;;;;;;;21.40;33.60;;;;;;497904;239;1205;-44
2021/04/16 04:27:29;;;;;;;;;;;21.30;33.60;;;;;;509457;234;1073;-44
2021/04/16 04:29:30;;;;;;;;;;;21.40;33.50;;;;;;492307;241;1118;-44
2021/04/16 04:31:31;;;;;;;;;;;21.40;33.60;;;;;;509117;234;1053;-44
2021/04/16 04:33:33;;;;;;;;;;;21.40;33.60;;;;;;508964;234;1180;-44
2021/04/16 04:35:34;;;;;;;;;;;21.40;33.60;;;;;;497465;239;1060;-44
2021/04/16 04:37:35;;;;;;;;;;;21.40;33.60;;;;;;508905;234;2190;-44
2021/04/16 04:39:36;;;;;;;;;;;21.40;33.60;;;;;;492248;241;1093;-44
2021/04/16 04:41:38;;;;;;;;;;;21.40;33.60;;;;;;509089;234;1146;-44
2021/04/16 04:43:39;;;;;;;;;;;21.40;33.60;;;;;;497606;239;1261;-44
2021/04/16 04:45:40;;;;;;;;;;;21.40;33.50;;;;;;509017;234;1067;-44
2021/04/16 04:47:42;;;;;;;;;;;21.40;33.60;;;;;;497523;239;1075;-44
2021/04/16 04:49:43;;;;;;;;;;;21.40;33.60;;;;;;509403;234;1076;-44
2021/04/16 04:51:44;;;;;;;;;;;21.40;33.60;;;;;;497309;239;1134;-44
2021/04/16 04:53:45;;;;;;;;;;;21.40;33.60;;;;;;508938;234;1113;-44
2021/04/16 04:55:47;;;;;;;;;;;21.40;33.60;;;;;;497517;239;1068;-44
2021/04/16 04:57:48;;;;;;;;;;;21.40;33.60;;;;;;508806;234;2160;-44
2021/04/16 04:59:50;;;;;;;;;;;21.40;33.50;;;;;;497553;239;1067;-44
2021/04/16 05:01:51;;;;;;;;;;;21.40;33.50;;;;;;509100;234;1217;-44
2021/04/16 05:03:52;;;;;;;;;;;21.40;33.50;;;;;;497533;239;1095;-44
2021/04/16 05:05:53;;;;;;;;;;;21.50;33.50;;;;;;509037;234;1169;-44
2021/04/16 05:07:55;;;;;;;;;;;21.50;33.50;;;;;;497372;239;1349;-44
2021/04/16 05:09:56;;;;;;;;;;;21.50;33.50;;;;;;509283;234;1041;-44
2021/04/16 05:11:57;;;;;;;;;;;21.50;33.50;;;;;;497349;239;1144;-44
2021/04/16 05:13:59;;;;;;;;;;;21.50;33.50;;;;;;508671;234;1118;-44
2021/04/16 05:16:00;;;;;;;;;;;21.50;33.50;;;;;;491532;242;1078;-44
2021/04/16 05:18:01;;;;;;;;;;;21.50;33.50;;;;;;508686;234;2149;-44
2021/04/16 05:20:02;;;;;;;;;;;21.50;33.50;;;;;;509012;233;1064;-44
2021/04/16 05:22:04;;;;;;;;;;;21.50;33.50;;;;;;497563;239;1101;-44
2021/04/16 05:24:05;;;;;;;;;;;21.50;33.50;;;;;;508688;234;2643;-44
2021/04/16 05:26:06;;;;;;;;;;;21.50;33.50;;;;;;508654;234;1074;-44
2021/04/16 05:28:08;;;;;;;;;;;21.50;33.50;;;;;;497268;239;1097;-44
2021/04/16 05:30:09;;;;;;;;;;;21.50;33.50;;;;;;508926;234;1123;-44
2021/04/16 05:32:10;;;;;;;;;;;21.50;33.50;;;;;;491542;242;1167;-44
2021/04/16 05:34:11;;;;;;;;;;;21.50;33.50;;;;;;508759;234;1171;-44
2021/04/16 05:36:13;;;;;;;;;;;21.50;33.50;;;;;;508775;234;1140;-44
2021/04/16 05:38:14;;;;;;;;;;;21.50;33.50;;;;;;491586;242;2181;-44
2021/04/16 05:40:15;;;;;;;;;;;21.50;33.50;;;;;;508766;234;1076;-44
2021/04/16 05:42:17;;;;;;;;;;;21.50;33.50;;;;;;497303;239;1192;-44
2021/04/16 05:44:18;;;;;;;;;;;21.50;33.50;;;;;;508860;234;1176;-44
2021/04/16 05:46:19;;;;;;;;;;;21.50;33.50;;;;;;491566;241;1514;-44
2021/04/16 05:48:20;;;;;;;;;;;21.50;33.50;;;;;;508677;234;1131;-44
2021/04/16 05:50:22;;;;;;;;;;;21.50;33.50;;;;;;491532;242;1093;-44
2021/04/16 05:52:23;;;;;;;;;;;21.50;33.50;;;;;;508532;234;1221;-44
2021/04/16 05:54:24;;;;;;;;;;;21.50;33.50;;;;;;491529;241;1149;-44
2021/04/16 05:56:25;;;;;;;;;;;21.50;33.50;;;;;;508617;234;1250;-47
2021/04/16 05:58:27;;;;;;;;;;;21.50;33.40;;;;;;491379;241;2195;-44
2021/04/16 06:00:28;;;;;;;;;;;21.60;33.50;;;;;;508501;234;1049;-44
2021/04/16 06:02:29;;;;;;;;;;;21.50;33.40;;;;;;508490;233;1086;-44
2021/04/16 06:04:31;;;;;;;;;;;21.50;33.40;;;;;;497289;239;1107;-44
2021/04/16 06:06:32;;;;;;;;;;;21.60;33.40;;;;;;508653;234;1125;-44
2021/04/16 06:08:33;;;;;;;;;;;21.60;33.40;;;;;;497079;239;1151;-44
2021/04/16 06:10:35;;;;;;;;;;;21.50;33.30;;;;;;508551;234;1103;-44
2021/04/16 06:12:37;;;;;;;;;;;21.60;33.40;;;;;;491419;241;1343;-44
2021/04/16 06:14:37;;;;;;;;;;;21.60;33.40;;;;;;508419;234;2158;-44
2021/04/16 06:16:39;;;;;;;;;;;21.60;33.40;;;;;;496970;239;1075;-44
2021/04/16 06:18:40;;;;;;;;;;;21.60;33.40;;;;;;508420;234;2187;-44
2021/04/16 06:20:42;;;;;;;;;;;21.60;33.40;;;;;;491432;241;1096;-44
2021/04/16 06:22:43;;;;;;;;;;;21.60;33.40;;;;;;508445;234;1125;-44
2021/04/16 06:24:44;;;;;;;;;;;21.60;33.40;;;;;;497117;239;1192;-44
2021/04/16 06:26:45;;;;;;;;;;;21.60;33.40;;;;;;508534;234;1126;-44
2021/04/16 06:28:47;;;;;;;;;;;21.60;33.40;;;;;;496917;239;1229;-44
2021/04/16 06:30:49;;;;;;;;;;;21.60;33.40;;;;;;508129;234;1103;-44
2021/04/16 06:32:49;;;;;;;;;;;21.60;33.40;;;;;;491039;242;1957;-44
2021/04/16 06:34:50;;;;;;;;;;;21.60;33.40;;;;;;508512;234;1208;-44
2021/04/16 06:36:52;;;;;;;;;;;21.60;33.40;;;;;;508680;233;1095;-44
2021/04/16 06:38:53;;;;;;;;;;;21.60;33.40;;;;;;496935;239;2193;-45
2021/04/16 06:40:54;;;;;;;;;;;21.60;33.30;;;;;;508458;234;1088;-45
2021/04/16 06:42:56;;;;;;;;;;;21.60;33.30;;;;;;497051;239;1319;-45
2021/04/16 06:44:57;;;;;;;;;;;21.60;33.30;;;;;;508747;234;1312;-45
2021/04/16 06:47:01;;;;;;;;;;;21.60;33.30;;;;;;497221;239;1352;-44
2021/04/16 06:49:00;;;;;;;;;;;21.60;33.30;;;;;;508330;234;2090;-45
2021/04/16 06:51:01;;;;;;;;;;;21.60;33.30;;;;;;496764;239;1260;-45
2021/04/16 06:53:02;;;;;;;;;;;21.60;33.40;;;;;;508294;234;1502;-45
2021/04/16 06:55:04;;;;;;;;;;;21.60;33.30;;;;;;496798;239;1149;-44
2021/04/16 06:57:05;;;;;;;;;;;21.60;33.30;;;;;;508472;234;1320;-44
2021/04/16 06:59:06;;;;;;;;;;;21.60;33.30;;;;;;497266;239;2188;-44
2021/04/16 07:01:09;;;;;;;;;;;21.60;33.30;;;;;;508333;234;1305;-45
2021/04/16 07:03:10;;;;;;;;;;;21.60;33.30;;;;;;496926;239;1171;-44
2021/04/16 07:05:11;;;;;;;;;;;21.70;33.40;;;;;;508401;234;1462;-44
2021/04/16 07:07:12;;;;;;;;;;;21.60;33.40;;;;;;497037;239;1113;-45
2021/04/16 07:09:13;;;;;;;;;;;21.60;33.30;;;;;;508149;234;1172;-45
2021/04/16 07:11:15;;;;;;;;;;;21.60;33.30;;;;;;496672;239;1103;-45
2021/04/16 07:13:16;;;;;;;;;;;21.60;33.30;;;;;;508281;234;1091;-45
2021/04/16 07:15:17;;;;;;;;;;;21.60;33.30;;;;;;491422;241;1120;-45
2021/04/16 07:17:19;;;;;;;;;;;21.70;33.30;;;;;;508235;234;1164;-45
2021/04/16 07:19:20;;;;;;;;;;;21.60;33.30;;;;;;496939;239;2201;-45
2021/04/16 07:21:21;;;;;;;;;;;21.60;33.30;;;;;;508592;234;1117;-44
2021/04/16 07:23:22;;;;;;;;;;;21.60;33.20;;;;;;497073;239;1087;-45
2021/04/16 07:25:24;;;;;;;;;;;21.60;33.30;;;;;;508337;234;1184;-44
2021/04/16 07:27:25;;;;;;;;;;;21.60;33.30;;;;;;491459;241;1091;-45
2021/04/16 07:29:26;;;;;;;;;;;21.70;33.30;;;;;;508363;234;1189;-44
2021/04/16 07:31:29;;;;;;;;;;;21.70;33.30;;;;;;496917;239;1116;-45
2021/04/16 07:33:29;;;;;;;;;;;21.70;33.30;;;;;;508286;234;1262;-45
2021/04/16 07:35:31;;;;;;;;;;;21.70;33.30;;;;;;508376;233;1247;-44
2021/04/16 07:37:31;;;;;;;;;;;21.70;33.30;;;;;;496624;239;2190;-45
2021/04/16 07:39:33;;;;;;;;;;;21.60;33.30;;;;;;508117;234;1269;-45
2021/04/16 07:41:34;;;;;;;;;;;21.60;33.20;;;;;;496530;239;1233;-45
2021/04/16 07:43:35;;;;;;;;;;;21.70;33.30;;;;;;508106;234;1177;-45
2021/04/16 07:45:36;;;;;;;;;;;21.70;33.20;;;;;;491064;241;1368;-45
2021/04/16 07:47:38;;;;;;;;;;;21.70;33.20;;;;;;508485;234;973;-44
2021/04/16 07:49:39;;;;;;;;;;;21.70;33.30;;;;;;508528;233;1082;-45
2021/04/16 07:51:40;;;;;;;;;;;21.70;33.30;;;;;;496850;239;1364;-44
2021/04/16 07:53:42;;;;;;;;;;;21.70;33.20;;;;;;508273;234;1071;-45
2021/04/16 07:55:43;;;;;;;;;;;21.70;33.20;;;;;;491161;241;1200;-45
2021/04/16 07:57:44;;;;;;;;;;;21.70;33.20;;;;;;508189;234;2184;-45
2021/04/16 07:59:46;;;;;;;;;;;21.70;33.20;;;;;;491177;242;1167;-45
2021/04/16 08:01:47;;;;;;;;;;;21.70;33.20;;;;;;508328;234;1148;-45
2021/04/16 08:03:48;;;;;;;;;;;21.70;33.20;;;;;;491186;241;1072;-45
2021/04/16 08:05:50;;;;;;;;;;;21.70;33.20;;;;;;508129;234;1105;-44
2021/04/16 08:07:51;;;;;;;;;;;21.70;33.20;;;;;;508383;233;1982;-44
2021/04/16 08:09:52;;;;;;;;;;;21.70;33.20;;;;;;496775;239;1158;-45
2021/04/16 08:11:53;;;;;;;;;;;21.70;33.20;;;;;;508293;234;1096;-45
2021/04/16 08:13:55;;;;;;;;;;;21.70;33.20;;;;;;496776;239;1115;-45
2021/04/16 08:15:56;;;;;;;;;;;21.70;33.10;;;;;;508220;234;1042;-45
2021/04/16 08:17:57;;;;;;;;;;;21.70;33.10;;;;;;491080;241;2180;-44
2021/04/16 08:19:59;;;;;;;;;;;21.80;33.20;;;;;;508249;234;1108;-45
2021/04/16 08:22:00;;;;;;;;;;;21.80;33.10;;;;;;496816;239;1205;-45
2021/04/16 08:24:02;;;;;;;;;;;21.80;33.20;;;;;;508208;234;1097;-45
2021/04/16 08:26:03;;;;;;;;;;;21.80;33.10;;;;;;496836;239;1327;-45
2021/04/16 08:28:04;;;;;;;;;;;21.80;33.20;;;;;;508092;234;1106;-45
2021/04/16 08:30:05;;;;;;;;;;;21.80;33.10;;;;;;496738;239;1164;-45
2021/04/16 08:32:07;;;;;;;;;;;21.80;33.10;;;;;;508136;234;1247;-45
2021/04/16 08:34:08;;;;;;;;;;;21.80;33.10;;;;;;496788;239;1068;-45
2021/04/16 08:36:10;;;;;;;;;;;21.80;33.10;;;;;;508198;234;1675;-44
2021/04/16 08:38:11;;;;;;;;;;;21.80;33.20;;;;;;496829;239;2239;-44
2021/04/16 08:40:12;;;;;;;;;;;21.80;33.20;;;;;;508216;234;1194;-45
2021/04/16 08:42:13;;;;;;;;;;;21.80;33.20;;;;;;491014;241;1238;-45
2021/04/16 08:44:15;;;;;;;;;;;21.80;33.20;;;;;;508014;234;1289;-45
2021/04/16 08:46:16;;;;;;;;;;;21.70;33.20;;;;;;508077;233;1205;-45
2021/04/16 08:48:20;;;;;;;;;;;21.70;33.10;;;;;;496754;239;1119;-44
2021/04/16 08:50:19;;;;;;;;;;;21.80;33.20;;;;;;508198;234;2193;-44
2021/04/16 08:52:20;;;;;;;;;;;21.80;33.10;;;;;;506161;233;1204;-44
2021/04/16 08:54:23;;;;;;;;;;;21.80;33.10;;;;;;505853;234;1105;-45
2021/04/16 08:56:22;;;;;;;;;;;21.80;33.10;;;;;;504470;236;1977;-45
2021/04/16 08:58:24;;;;;;;;;;;21.80;33.10;;;;;;504586;235;2162;-45
2021/04/16 09:00:25;;;;;;;;;;;21.80;33.20;;;;;;504609;236;1293;-45
2021/04/16 09:02:26;;;;;;;;;;;21.80;33.10;;;;;;504454;235;1431;-45
2021/04/16 09:04:27;;;;;;;;;;;21.80;33.00;;;;;;504577;234;1099;-45
2021/04/16 09:06:29;;;;;;;;;;;21.80;33.10;;;;;;504539;235;1224;-44
2021/04/16 09:08:30;;;;;;;;;;;21.80;33.10;;;;;;504501;235;1083;-45
2021/04/16 09:10:31;;;;;;;;;;;21.80;33.10;;;;;;504316;235;1259;-45
2021/04/16 09:12:33;;;;;;;;;;;21.80;33.10;;;;;;504756;234;1279;-44
2021/04/16 09:14:34;;;;;;;;;;;21.80;33.10;;;;;;504839;236;1322;-45
2021/04/16 09:16:35;;;;;;;;;;;21.80;33.20;;;;;;504581;235;1252;-45
2021/04/16 09:18:36;;;;;;;;;;;21.80;33.10;;;;;;505104;235;2175;-45
2021/04/16 09:20:39;;;;;;;;;;;21.80;33.00;;;;;;504583;235;1574;-45
2021/04/16 09:22:42;;;;;;;;;;;21.80;33.10;;;;;;504540;235;1832;-44
2021/04/16 09:24:42;;;;;;;;;;;21.90;33.10;;;;;;504415;235;2514;-45
2021/04/16 09:26:44;;;;;;;;;;;21.90;33.00;;;;;;504273;235;1222;-45
2021/04/16 09:28:45;;;;;;;;;;;21.90;33.00;;;;;;504549;235;1071;-45
2021/04/16 09:30:46;;;;;;;;;;;21.90;33.00;;;;;;504715;235;1449;-45
2021/04/16 09:32:48;;;;;;;;;;;21.80;33.00;;;;;;503869;234;1099;-45
2021/04/16 09:34:49;;;;;;;;;;;21.80;33.00;;;;;;504483;235;1060;-45
2021/04/16 09:36:50;;;;;;;;;;;21.80;33.00;;;;;;504595;235;1595;-45
2021/04/16 09:38:51;;;;;;;;;;;21.90;33.00;;;;;;504407;234;2182;-45
2021/04/16 09:40:53;;;;;;;;;;;21.90;33.00;;;;;;504462;235;1279;-45
2021/04/16 09:42:54;;;;;;;;;;;21.90;33.00;;;;;;504558;235;1155;-44
2021/04/16 09:44:55;;;;;;;;;;;21.90;33.00;;;;;;504594;235;1048;-45
2021/04/16 09:46:57;;;;;;;;;;;21.80;33.10;;;;;;504621;235;1223;-44
2021/04/16 09:48:58;;;;;;;;;;;21.90;33.10;;;;;;504407;235;1154;-45
2021/04/16 09:51:00;;;;;;;;;;;21.90;33.10;;;;;;503527;235;1039;-45
2021/04/16 09:53:01;;;;;;;;;;;21.80;33.10;;;;;;504180;235;1213;-45
2021/04/16 09:55:02;;;;;;;;;;;21.90;33.00;;;;;;504486;235;1077;-45
2021/04/16 09:57:04;;;;;;;;;;;21.90;33.00;;;;;;504427;235;1282;-45
2021/04/16 09:59:05;;;;;;;;;;;21.90;33.00;;;;;;504494;235;2130;-45
2021/04/16 10:01:06;;;;;;;;;;;21.90;33.00;;;;;;504417;235;1086;-45
2021/04/16 10:03:07;;;;;;;;;;;21.90;33.00;;;;;;504491;236;1095;-45
2021/04/16 10:05:09;;;;;;;;;;;21.90;33.00;;;;;;504387;235;1070;-45
2021/04/16 10:07:10;;;;;;;;;;;21.90;33.00;;;;;;504348;235;1114;-44
2021/04/16 10:09:11;;;;;;;;;;;21.90;33.00;;;;;;504513;235;1146;-45
2021/04/16 10:11:13;;;;;;;;;;;21.90;33.00;;;;;;504601;235;1185;-45
2021/04/16 10:13:14;;;;;;;;;;;21.90;33.00;;;;;;504800;235;1287;-45
2021/04/16 10:15:15;;;;;;;;;;;22.00;32.90;;;;;;504618;235;1130;-45
2021/04/16 10:17:17;;;;;;;;;;;21.80;33.00;;;;;;504534;235;1153;-44
2021/04/16 10:19:18;;;;;;;;;;;21.40;33.70;;;;;;504533;236;2173;-44
2021/04/16 10:21:21;;;;;;;;;;;20.90;34.70;;;;;;504694;235;1186;-44
2021/04/16 10:23:21;;;;;;;;;;;20.50;35.40;;;;;;504429;235;1358;-45
2021/04/16 12:39:24;;;;;;;;;;;18.80;37.60;;;;;;504488;235;2135;-44
2021/04/16 12:41:26;;;;;;;;;;;18.80;37.60;;;;;;504530;236;1167;-43
2021/04/16 12:43:27;;;;;;;;;;;18.80;37.60;;;;;;504566;234;1275;-44
2021/04/16 12:45:29;;;;;;;;;;;18.80;37.50;;;;;;504459;235;1193;-44
2021/04/16 12:47:30;;;;;;;;;;;18.80;37.50;;;;;;504527;235;2638;-44
2021/04/16 12:49:31;;;;;;;;;;;18.80;37.60;;;;;;504585;235;2365;-44
2021/04/16 12:51:32;;;;;;;;;;;18.80;37.70;;;;;;504612;235;1225;-44
2021/04/16 12:53:33;;;;;;;;;;;18.70;37.70;;;;;;504827;235;1162;-44
2021/04/16 12:55:34;;;;;;;;;;;18.70;37.70;;;;;;504633;235;1212;-44
2021/04/16 12:57:37;;;;;;;;;;;18.70;37.70;;;;;;504585;234;1280;-44
2021/04/16 12:59:37;;;;;;;;;;;18.70;37.70;;;;;;504562;235;2205;-44
2021/04/16 13:01:39;;;;;;;;;;;18.70;37.70;;;;;;504844;235;1229;-44
2021/04/16 13:03:40;;;;;;;;;;;18.70;37.80;;;;;;504674;235;1195;-44
2021/04/16 13:05:41;;;;;;;;;;;18.70;37.80;;;;;;504564;235;1096;-44
2021/04/16 13:07:42;;;;;;;;;;;18.60;37.80;;;;;;504626;235;1165;-44
2021/04/16 13:09:44;;;;;;;;;;;18.60;37.80;;;;;;504537;235;1374;-44
2021/04/16 13:11:45;;;;;;;;;;;18.60;37.80;;;;;;504692;236;1196;-44
2021/04/16 13:13:46;;;;;;;;;;;18.60;37.80;;;;;;504554;235;1169;-44
2021/04/16 13:15:48;;;;;;;;;;;18.60;37.90;;;;;;504611;235;1349;-45
2021/04/16 13:17:49;;;;;;;;;;;18.60;37.90;;;;;;504842;235;2316;-44
2021/04/16 13:19:50;;;;;;;;;;;18.60;37.90;;;;;;504655;235;2197;-44
2021/04/16 13:21:51;;;;;;;;;;;18.60;37.90;;;;;;504582;235;1319;-44
2021/04/16 13:23:53;;;;;;;;;;;18.60;37.90;;;;;;504532;235;1278;-44
2021/04/16 13:25:57;;;;;;;;;;;18.60;37.90;;;;;;504730;235;1241;-44
2021/04/16 13:27:58;;;;;;;;;;;18.60;37.90;;;;;;504712;235;1102;-44
2021/04/16 13:29:59;;;;;;;;;;;18.50;37.90;;;;;;504610;234;1187;-44
2021/04/16 13:32:01;;;;;;;;;;;18.50;37.90;;;;;;504787;235;1204;-44
2021/04/16 13:34:02;;;;;;;;;;;18.50;37.90;;;;;;504670;235;1290;-44
2021/04/16 13:36:03;;;;;;;;;;;18.50;37.90;;;;;;504506;235;1384;-44
2021/04/16 13:38:05;;;;;;;;;;;18.50;37.80;;;;;;504530;235;1084;-46
2021/04/16 13:40:06;;;;;;;;;;;18.60;37.80;;;;;;504648;235;2189;-44
2021/04/16 13:42:07;;;;;;;;;;;18.50;37.80;;;;;;504678;235;1175;-44
2021/04/16 13:44:09;;;;;;;;;;;18.50;37.80;;;;;;504717;235;1265;-44
2021/04/16 13:46:10;;;;;;;;;;;18.50;37.90;;;;;;504674;235;1356;-44
2021/04/16 13:48:11;;;;;;;;;;;18.50;37.80;;;;;;504772;235;1186;-44
2021/04/16 13:50:12;;;;;;;;;;;18.50;37.90;;;;;;504615;235;1038;-44
2021/04/16 13:52:14;;;;;;;;;;;18.50;37.90;;;;;;504721;235;1280;-44
2021/04/16 13:54:15;;;;;;;;;;;18.50;37.90;;;;;;504647;235;1110;-44
2021/04/16 13:56:17;;;;;;;;;;;18.50;37.90;;;;;;504672;235;1270;-44
2021/04/16 13:58:18;;;;;;;;;;;18.50;37.80;;;;;;504772;235;1057;-44
2021/04/16 14:00:19;;;;;;;;;;;18.60;37.80;;;;;;504605;235;2186;-44
2021/04/16 14:02:20;;;;;;;;;;;18.60;37.60;;;;;;504732;235;1179;-44
2021/04/16 14:04:21;;;;;;;;;;;18.60;37.60;;;;;;504566;235;1151;-44
2021/04/16 14:06:23;;;;;;;;;;;18.70;37.50;;;;;;504475;235;1198;-44
2021/04/16 14:08:24;;;;;;;;;;;18.70;37.40;;;;;;504349;235;1104;-44
2021/04/16 14:10:25;;;;;;;;;;;18.70;37.40;;;;;;504791;235;1084;-44